Waynesville, GA

9:33 AM EDT on September 22, 2014 (GMT -0400)
McKinnon | Change Station
CLOSE
Current Station
Airport
Location: Saint Simons Island,
Elevation: 20 ft
Nearby Weather Stations

Elev 20 ft 31.15 °N, 81.39 °W | Updated 40 minutes ago

Clear
Clear
75 °F
Feels Like 75 °F
N
8
Wind Variable Wind from WSW

Today
High -- | Low -- °F
--% Chance of Precip.
Yesterday
High -- | Low -- °F
Precip. -- in
7:15 AM 7:23 PM
Waning Crescent, 3% visible
Pressure 30.04 in
Visibility 10.0 miles
Clouds Clear
Dew Point 68 °F
Humidity 79%
Rainfall 0.00 in
Snow Depth Not available.
UV 2 out of 12
Pollen 7.40 out of 12
Air Quality Not available.
Flu Activity Not available.
METAR KSSI 221253Z AUTO 25007KT 10SM CLR 24/20 A3004 RMK AO2 SLP173 T02390200

More Conditions Fewer Conditions

Pressure 30.04 in
Visibility 10.0 miles
Clouds Clear
Dew Point 68 °F
Humidity 79%
Rainfall 0.00 in
Snow Depth Not available.
UV 2 out of 12
Pollen 7.40 out of 12
Air Quality Not available.
Flu Activity Not available.
METAR KSSI 221253Z AUTO 25007KT 10SM CLR 24/20 A3004 RMK AO2 SLP173 T02390200

More Conditions Fewer Conditions

10-Day Weather Forecast

Almanac

Astronomy

Sep. 22, 2014 Rise Set
Actual Time 7:15 AM EDT 7:23 PM EDT
Civil Twilight 6:51 AM EDT 7:48 PM EDT
Nautical Twilight 6:23 AM EDT 8:16 PM EDT
Astronomical Twilight 5:54 AM EDT 8:44 PM EDT
Moon 5:47 AM EDT 6:28 PM EDT
Length of Visible Light 12h 56m
Length of Day
12h 08m
Tomorrow will be 1m 54s shorter.
Waning Crescent, 3% of the Moon is Illuminated
Today
Waning Crescent
Sep 24
New
Oct 1
First Quarter
Oct 8
Full
Oct 15
Last Quarter

Today's Extremes

State Highs State Lows

Community

WunderPhotos

Upload Photos

1,755,429 photos uploaded!

WunderBlogs® & News

Nearby

Snow Depth

Station Depth Elevation
No new snow has been reported.

Earthquake Activity

City Distance Mag. Time & Date
No recent earthquake activity has been reported nearby.
Minimum magnitude displayed is 2.5.

Coastal Water Temperatures

Place Temperature
Fernandina Beach, FL 82.0 °F
Mayport (Bar Pilots Dock), FL 82.0 °F

Nearby Weather Stations